Time;durP1;ratioP1;P1;durP2;ratioP2;P2;SDS_P1;SDS_P2;PMS_P1;PMS_P2;Temp;Humidity;BMP_temperature;BMP_pressure;BME280_temperature;BME280_humidity;BME280_pressure;Samples;Min_cycle;Max_cycle;Signal;HPM_P1;HPM_P2
2023/02/08 00:00:21;;;;;;;0.30;0.30;;;-2.20;99.90;;;;;;5073021;28;20477;-82
2023/02/08 00:02:48;;;;;;;0.40;0.40;;;-2.10;99.90;;;;;;5072723;28;20420;-82
2023/02/08 00:05:15;;;;;;;0.30;0.30;;;-2.20;99.90;;;;;;5072897;28;20428;-82
2023/02/08 00:07:43;;;;;;;0.30;0.30;;;-2.20;99.90;;;;;;5072878;28;20480;-82
2023/02/08 00:10:10;;;;;;;0.30;0.30;;;-2.30;99.90;;;;;;5072912;28;20420;-82
2023/02/08 00:12:37;;;;;;;0.43;0.40;;;-2.30;99.90;;;;;;5072888;28;20425;-82
2023/02/08 00:15:05;;;;;;;2.40;1.80;;;-2.30;99.90;;;;;;5072943;28;20420;-82
2023/02/08 00:17:32;;;;;;;0.60;0.60;;;-2.30;99.90;;;;;;5073105;28;20472;-82
2023/02/08 00:19:58;;;;;;;0.30;0.30;;;-2.30;99.90;;;;;;5072511;28;20967;-82
2023/02/08 00:22:25;;;;;;;0.30;0.30;;;-2.40;99.90;;;;;;5073159;28;20403;-82
2023/02/08 00:24:53;;;;;;;0.73;0.73;;;-2.40;99.90;;;;;;5072502;28;20776;-82
2023/02/08 00:27:20;;;;;;;0.40;0.40;;;-2.30;99.90;;;;;;5072669;28;20492;-82
2023/02/08 00:29:47;;;;;;;0.30;0.30;;;-2.30;99.90;;;;;;5073039;28;20400;-82
2023/02/08 00:32:14;;;;;;;0.30;0.30;;;-2.40;99.90;;;;;;5072705;28;20431;-82
2023/02/08 00:34:41;;;;;;;0.30;0.30;;;-2.40;99.90;;;;;;5072751;28;20450;-82
2023/02/08 00:37:07;;;;;;;0.60;0.60;;;-2.40;99.90;;;;;;5072128;28;20568;-82
2023/02/08 00:39:34;;;;;;;0.40;0.40;;;-2.40;99.90;;;;;;5075879;28;20446;-82
2023/02/08 00:42:02;;;;;;;3.37;0.80;;;-2.40;99.90;;;;;;5076224;28;20457;-82
2023/02/08 00:44:29;;;;;;;0.30;0.30;;;-2.40;99.90;;;;;;5076187;28;20420;-82
2023/02/08 00:46:55;;;;;;;0.40;0.30;;;-2.50;99.90;;;;;;5075968;28;20492;-82
2023/02/08 00:49:22;;;;;;;0.57;0.57;;;-2.50;99.90;;;;;;5076084;28;20436;-82
2023/02/08 00:51:49;;;;;;;0.30;0.20;;;-2.40;99.90;;;;;;5076038;28;20445;-82
2023/02/08 00:54:16;;;;;;;0.30;0.30;;;-2.50;99.90;;;;;;5075704;28;20938;-82
2023/02/08 00:56:43;;;;;;;0.30;0.30;;;-2.50;99.90;;;;;;5075882;28;20439;-82
2023/02/08 00:59:12;;;;;;;0.30;0.30;;;-2.50;99.90;;;;;;5076010;28;20780;-82
2023/02/08 01:01:39;;;;;;;0.37;0.37;;;-2.50;99.90;;;;;;5075843;28;20451;-82
2023/02/08 01:04:07;;;;;;;0.73;0.50;;;-2.50;99.90;;;;;;5075796;28;20439;-82
2023/02/08 01:06:33;;;;;;;0.30;0.30;;;-2.50;99.90;;;;;;5075617;28;20466;-83
2023/02/08 01:09:00;;;;;;;0.60;0.60;;;-2.60;99.90;;;;;;5075788;28;20443;-83
2023/02/08 01:11:27;;;;;;;0.30;0.30;;;-2.60;99.90;;;;;;5075643;28;20417;-82
2023/02/08 01:13:56;;;;;;;0.30;0.30;;;-2.60;99.90;;;;;;5075630;28;20453;-82
2023/02/08 01:16:27;;;;;;;0.30;0.30;;;-2.60;99.90;;;;;;5075622;28;20470;-82
2023/02/08 01:18:56;;;;;;;0.60;0.60;;;-2.60;99.90;;;;;;5076143;28;20911;-83
2023/02/08 01:21:24;;;;;;;0.77;0.73;;;-2.70;99.90;;;;;;5075583;28;20446;-83
2023/02/08 01:23:51;;;;;;;0.30;0.30;;;-2.70;99.90;;;;;;5075588;28;20420;-83
2023/02/08 01:26:19;;;;;;;0.33;0.33;;;-2.70;99.90;;;;;;5075320;28;20478;-83
2023/02/08 01:28:46;;;;;;;0.30;0.30;;;-2.70;99.90;;;;;;5075373;28;20432;-83
2023/02/08 01:31:15;;;;;;;0.30;0.30;;;-2.70;99.90;;;;;;5080114;28;20442;-82
2023/02/08 01:33:43;;;;;;;0.30;0.30;;;-2.70;99.90;;;;;;5075472;28;20441;-82
2023/02/08 01:36:11;;;;;;;0.30;0.30;;;-2.70;99.90;;;;;;5074853;28;20469;-82
2023/02/08 01:38:39;;;;;;;0.30;0.20;;;-2.80;99.90;;;;;;5075255;28;20428;-83
2023/02/08 01:41:07;;;;;;;0.30;0.30;;;-2.80;99.90;;;;;;5075153;28;20445;-83
2023/02/08 01:43:55;;;;;;;0.30;0.30;;;-2.80;99.90;;;;;;5075206;28;20423;-83
2023/02/08 01:46:22;;;;;;;0.40;0.40;;;-2.80;99.90;;;;;;5074497;28;20810;-83
2023/02/08 01:48:51;;;;;;;0.50;0.50;;;-2.80;99.90;;;;;;5074634;28;20420;-83
2023/02/08 01:51:21;;;;;;;0.30;0.30;;;-2.80;99.90;;;;;;5074277;28;20441;-83
2023/02/08 01:53:50;;;;;;;0.30;0.30;;;-2.90;99.90;;;;;;5075200;28;20425;-83
2023/02/08 01:56:21;;;;;;;1.80;1.70;;;-2.90;99.90;;;;;;5075050;28;20804;-83
2023/02/08 01:58:52;;;;;;;0.30;0.30;;;-2.90;99.90;;;;;;5074569;28;20876;-83
2023/02/08 02:01:18;;;;;;;0.30;0.30;;;-2.90;99.90;;;;;;5074535;28;20389;-83
2023/02/08 02:03:45;;;;;;;0.30;0.30;;;-2.90;99.90;;;;;;5074837;28;20420;-83
2023/02/08 02:06:17;;;;;;;0.50;0.50;;;-2.90;99.90;;;;;;5074442;28;20470;-83
2023/02/08 02:08:51;;;;;;;0.83;0.83;;;-2.90;99.90;;;;;;5074313;28;20888;-83
2023/02/08 02:11:19;;;;;;;0.30;0.30;;;-3.00;99.90;;;;;;5074291;28;20943;-83
2023/02/08 02:13:49;;;;;;;0.30;0.30;;;-3.00;99.90;;;;;;5074496;28;20457;-83
2023/02/08 02:16:16;;;;;;;0.50;0.50;;;-3.00;99.90;;;;;;5074645;28;20436;-83
2023/02/08 02:18:43;;;;;;;0.30;0.30;;;-3.00;99.90;;;;;;5074379;28;20457;-83
2023/02/08 02:21:23;;;;;;;0.97;0.97;;;-3.00;99.90;;;;;;5074006;28;20806;-83
2023/02/08 02:24:24;;;;;;;0.30;0.30;;;-3.10;99.90;;;;;;5074343;28;20426;-83
2023/02/08 02:27:07;;;;;;;0.30;0.20;;;-3.10;99.90;;;;;;5054601;28;20488;-83
2023/02/08 02:29:58;;;;;;;1.80;0.97;;;-3.20;99.90;;;;;;5074244;28;20409;-83
2023/02/08 02:32:36;;;;;;;0.40;0.40;;;-3.20;99.90;;;;;;5074143;28;20443;-83
2023/02/08 02:35:07;;;;;;;0.33;0.33;;;-3.20;99.90;;;;;;5073946;28;20457;-83
2023/02/08 02:37:47;;;;;;;0.30;0.30;;;-3.30;99.90;;;;;;5074116;28;20444;-83
2023/02/08 02:40:21;;;;;;;0.30;0.30;;;-3.30;99.90;;;;;;5074264;28;20415;-83
2023/02/08 02:45:49;;;;;;;0.43;0.43;;;-3.20;99.90;;;;;;5073718;28;20580;-83
2023/02/08 02:48:26;;;;;;;2.00;1.70;;;-3.20;99.90;;;;;;5073868;28;20440;-83
2023/02/08 02:50:58;;;;;;;0.30;0.30;;;-3.20;99.90;;;;;;5073801;28;20915;-83
2023/02/08 02:53:31;;;;;;;0.67;0.67;;;-3.20;99.90;;;;;;5073824;28;20442;-83
2023/02/08 02:56:02;;;;;;;0.87;0.63;;;-3.10;99.90;;;;;;5073704;28;20465;-83
2023/02/08 02:58:31;;;;;;;0.33;0.33;;;-3.10;99.90;;;;;;5073811;28;20413;-83
2023/02/08 03:00:59;;;;;;;0.30;0.30;;;-3.10;99.90;;;;;;5073363;28;20445;-83
2023/02/08 03:03:31;;;;;;;1.10;0.47;;;-3.00;99.90;;;;;;5073395;28;20964;-83
2023/02/08 03:06:02;;;;;;;0.70;0.70;;;-3.10;99.90;;;;;;5073962;28;20477;-83
2023/02/08 03:09:00;;;;;;;1.80;0.87;;;-3.00;99.90;;;;;;5073364;28;20429;-83
2023/02/08 03:11:30;;;;;;;0.30;0.30;;;-3.00;99.90;;;;;;5073813;28;20405;-83
2023/02/08 03:14:17;;;;;;;0.37;0.37;;;-3.00;99.90;;;;;;5073544;28;20432;-83
2023/02/08 03:16:59;;;;;;;0.30;0.30;;;-3.00;99.90;;;;;;5073435;28;20451;-83
2023/02/08 03:19:35;;;;;;;0.80;0.80;;;-3.00;99.90;;;;;;5073556;28;20521;-83
2023/02/08 03:22:09;;;;;;;0.30;0.30;;;-3.00;99.90;;;;;;5074233;28;20408;-83
2023/02/08 03:24:42;;;;;;;0.30;0.30;;;-2.90;99.90;;;;;;5073553;28;20429;-83
2023/02/08 03:27:12;;;;;;;0.50;0.50;;;-3.00;99.90;;;;;;5073311;28;20467;-83
2023/02/08 03:29:49;;;;;;;1.43;0.67;;;-3.00;99.90;;;;;;5073397;28;20413;-83
2023/02/08 03:32:21;;;;;;;0.40;0.40;;;-3.10;99.90;;;;;;5073095;28;20400;-83
2023/02/08 03:34:53;;;;;;;1.27;1.00;;;-3.00;99.90;;;;;;5073350;28;20413;-83
2023/02/08 03:37:23;;;;;;;0.53;0.53;;;-3.00;99.90;;;;;;5073583;28;20428;-83
2023/02/08 03:39:52;;;;;;;1.07;1.07;;;-3.00;99.90;;;;;;5073257;28;20417;-83
2023/02/08 03:42:23;;;;;;;0.30;0.30;;;-2.90;99.90;;;;;;5072952;28;20822;-83
2023/02/08 03:44:55;;;;;;;0.40;0.40;;;-2.90;99.90;;;;;;5073231;28;20411;-83
2023/02/08 03:47:26;;;;;;;0.30;0.30;;;-3.00;99.90;;;;;;5073386;28;20485;-83
2023/02/08 03:49:58;;;;;;;0.80;0.80;;;-3.00;99.90;;;;;;5073186;28;20437;-83
2023/02/08 03:52:26;;;;;;;1.27;1.27;;;-3.00;99.90;;;;;;5073311;28;20437;-83
2023/02/08 03:54:58;;;;;;;0.60;0.60;;;-3.00;99.90;;;;;;5072943;28;20445;-83
2023/02/08 03:57:28;;;;;;;0.83;0.83;;;-2.90;99.90;;;;;;5073262;28;20444;-83
2023/02/08 03:59:59;;;;;;;0.57;0.57;;;-2.90;99.90;;;;;;5073457;28;20427;-81
2023/02/08 04:02:28;;;;;;;0.30;0.30;;;-3.00;99.90;;;;;;5073121;28;20437;-83
2023/02/08 04:04:57;;;;;;;0.40;0.40;;;-3.00;99.90;;;;;;5073032;28;20426;-83
2023/02/08 04:07:24;;;;;;;0.30;0.30;;;-3.00;99.90;;;;;;5072906;28;20460;-83
2023/02/08 04:09:51;;;;;;;0.30;0.30;;;-3.10;99.90;;;;;;5072948;28;20436;-83
2023/02/08 04:12:17;;;;;;;0.30;0.30;;;-3.10;99.90;;;;;;5072928;28;20453;-83
2023/02/08 04:14:44;;;;;;;0.30;0.30;;;-3.20;99.90;;;;;;5076350;28;20948;-83
2023/02/08 04:17:11;;;;;;;0.80;0.60;;;-3.20;99.90;;;;;;5076657;28;20468;-83
2023/02/08 04:19:38;;;;;;;0.30;0.30;;;-3.20;99.90;;;;;;5076674;28;20424;-83
2023/02/08 04:22:06;;;;;;;2.00;0.97;;;-3.20;99.90;;;;;;5076664;28;20426;-83
2023/02/08 04:24:33;;;;;;;2.20;1.17;;;-3.20;99.90;;;;;;5076625;28;20424;-83
2023/02/08 04:26:59;;;;;;;0.60;0.60;;;-3.10;99.90;;;;;;5076194;28;20548;-83
2023/02/08 04:29:26;;;;;;;0.40;0.40;;;-3.20;99.90;;;;;;5076521;28;20431;-83
2023/02/08 04:31:53;;;;;;;0.80;0.80;;;-3.20;99.90;;;;;;5076755;28;20431;-83
2023/02/08 04:34:20;;;;;;;0.30;0.30;;;-3.20;99.90;;;;;;5076221;28;20445;-83
2023/02/08 04:36:46;;;;;;;0.30;0.30;;;-3.20;99.90;;;;;;5076203;28;20479;-83
2023/02/08 04:39:15;;;;;;;1.83;1.73;;;-3.10;99.90;;;;;;5076350;28;20448;-83
2023/02/08 04:41:41;;;;;;;0.77;0.77;;;-3.10;99.90;;;;;;5080907;28;20487;-83
2023/02/08 04:44:08;;;;;;;0.57;0.57;;;-3.10;99.90;;;;;;5075995;28;20426;-83
2023/02/08 04:46:35;;;;;;;0.30;0.30;;;-3.10;99.90;;;;;;5076056;28;20465;-83
2023/02/08 04:49:02;;;;;;;0.50;0.50;;;-3.00;99.90;;;;;;5076168;28;20439;-83
2023/02/08 04:51:28;;;;;;;0.30;0.30;;;-3.10;99.90;;;;;;5076113;28;20428;-82
2023/02/08 04:53:55;;;;;;;0.47;0.47;;;-3.00;99.90;;;;;;5075831;28;20915;-83
2023/02/08 04:56:23;;;;;;;0.40;0.40;;;-3.10;99.90;;;;;;5075999;28;20472;-83
2023/02/08 04:58:50;;;;;;;0.50;0.50;;;-3.00;99.90;;;;;;5076310;28;20423;-83
2023/02/08 05:01:16;;;;;;;0.30;0.30;;;-3.10;99.90;;;;;;5075693;28;20964;-83
2023/02/08 05:03:43;;;;;;;0.40;0.40;;;-3.00;99.90;;;;;;5076052;28;20446;-83
2023/02/08 05:06:10;;;;;;;0.30;0.27;;;-3.00;99.90;;;;;;5075817;28;20481;-83
2023/02/08 05:08:37;;;;;;;1.10;0.77;;;-3.10;99.90;;;;;;5075502;28;21015;-83
2023/02/08 05:11:03;;;;;;;0.70;0.50;;;-3.10;99.90;;;;;;5075545;28;20412;-83
2023/02/08 05:13:32;;;;;;;6.33;0.67;;;-3.20;99.90;;;;;;5075429;28;21024;-83
2023/02/08 05:15:58;;;;;;;0.30;0.20;;;-3.20;99.90;;;;;;5075380;28;20436;-82
2023/02/08 05:18:25;;;;;;;0.40;0.40;;;-3.20;99.90;;;;;;5075715;28;20445;-83
2023/02/08 05:20:56;;;;;;;0.40;0.40;;;-3.30;99.90;;;;;;5075600;28;20453;-83
2023/02/08 05:23:23;;;;;;;0.30;0.30;;;-3.30;99.90;;;;;;5075428;28;20419;-83
2023/02/08 05:25:49;;;;;;;0.30;0.30;;;-3.40;99.90;;;;;;5075427;28;20470;-83
2023/02/08 05:28:16;;;;;;;0.33;0.33;;;-3.40;99.90;;;;;;5075450;28;20865;-83
2023/02/08 05:30:45;;;;;;;0.30;0.30;;;-3.40;99.90;;;;;;5075444;28;20916;-83
2023/02/08 05:33:12;;;;;;;1.07;0.80;;;-3.50;99.90;;;;;;5075386;28;20456;-83
2023/02/08 05:35:39;;;;;;;0.30;0.30;;;-3.50;99.90;;;;;;5075099;28;20493;-83
2023/02/08 05:38:06;;;;;;;0.80;0.80;;;-3.50;99.90;;;;;;5075346;28;20811;-83
2023/02/08 05:40:33;;;;;;;0.60;0.60;;;-3.50;99.90;;;;;;5074893;28;20941;-83
2023/02/08 05:43:00;;;;;;;0.50;0.50;;;-3.50;99.90;;;;;;5075287;28;20424;-83
2023/02/08 05:45:26;;;;;;;0.30;0.30;;;-3.50;99.90;;;;;;5075030;28;20447;-83
2023/02/08 05:47:54;;;;;;;0.40;0.40;;;-3.60;99.90;;;;;;5075000;28;20821;-83
2023/02/08 05:50:21;;;;;;;0.30;0.30;;;-3.50;99.90;;;;;;5074983;28;20441;-83
2023/02/08 05:52:48;;;;;;;0.30;0.30;;;-3.60;99.90;;;;;;5074924;28;20450;-83
2023/02/08 05:55:14;;;;;;;0.60;0.60;;;-3.60;99.90;;;;;;5074940;28;20445;-83
2023/02/08 05:57:41;;;;;;;6.60;0.60;;;-3.50;99.90;;;;;;5074843;28;20507;-83
2023/02/08 06:00:09;;;;;;;0.33;0.33;;;-3.60;99.90;;;;;;5074448;28;20946;-83
2023/02/08 06:02:36;;;;;;;0.83;0.83;;;-3.60;99.90;;;;;;5074489;28;20457;-83
2023/02/08 06:05:04;;;;;;;0.30;0.30;;;-3.60;99.90;;;;;;5074746;28;20449;-83
2023/02/08 06:07:31;;;;;;;0.73;0.47;;;-3.60;99.90;;;;;;5074513;28;20489;-83
2023/02/08 06:09:57;;;;;;;0.30;0.30;;;-3.70;99.90;;;;;;5074598;28;20453;-83
2023/02/08 06:12:24;;;;;;;0.30;0.30;;;-3.70;99.90;;;;;;5074270;28;20964;-83
2023/02/08 06:14:51;;;;;;;0.90;0.90;;;-3.70;99.90;;;;;;5074497;28;20416;-83
2023/02/08 06:17:18;;;;;;;0.50;0.40;;;-3.80;99.90;;;;;;5074452;28;20473;-83
2023/02/08 06:19:44;;;;;;;0.30;0.30;;;-3.80;99.90;;;;;;5074160;28;20815;-83
2023/02/08 06:22:12;;;;;;;0.30;0.30;;;-3.80;99.90;;;;;;5074360;28;20456;-83
2023/02/08 06:24:39;;;;;;;0.30;0.30;;;-3.90;99.90;;;;;;5074086;28;20434;-83
2023/02/08 06:27:06;;;;;;;0.33;0.33;;;-3.90;99.90;;;;;;5073834;28;20465;-83
2023/02/08 06:29:33;;;;;;;0.50;0.50;;;-4.00;99.90;;;;;;5074229;28;20445;-82
2023/02/08 06:31:59;;;;;;;0.30;0.30;;;-4.00;99.90;;;;;;5074323;28;20428;-83
2023/02/08 06:34:26;;;;;;;0.30;0.30;;;-4.00;99.90;;;;;;5073879;28;20498;-81
2023/02/08 06:36:53;;;;;;;1.00;1.00;;;-4.00;99.90;;;;;;5073178;28;20458;-81
2023/02/08 06:39:21;;;;;;;0.30;0.30;;;-4.00;99.90;;;;;;5073935;28;20469;-81
2023/02/08 06:41:48;;;;;;;3.70;1.90;;;-4.00;99.90;;;;;;5074010;28;20416;-81
2023/02/08 06:44:14;;;;;;;0.40;0.40;;;-4.10;99.90;;;;;;5073595;28;20976;-81
2023/02/08 06:46:41;;;;;;;0.53;0.53;;;-4.00;99.90;;;;;;5073819;28;20469;-81
2023/02/08 06:49:08;;;;;;;0.60;0.60;;;-4.00;99.90;;;;;;5073787;28;20485;-81
2023/02/08 06:51:34;;;;;;;0.30;0.30;;;-4.00;99.90;;;;;;5073473;28;20455;-81
2023/02/08 06:54:01;;;;;;;0.30;0.30;;;-4.00;99.90;;;;;;5073518;28;20523;-81
2023/02/08 06:56:29;;;;;;;0.30;0.30;;;-4.00;99.90;;;;;;5073414;28;20943;-81
2023/02/08 06:58:56;;;;;;;0.30;0.30;;;-4.00;99.90;;;;;;5073951;28;20473;-81
2023/02/08 07:01:23;;;;;;;0.40;0.40;;;-4.00;99.90;;;;;;5073723;28;20441;-81
2023/02/08 07:03:50;;;;;;;0.40;0.40;;;-3.90;99.90;;;;;;5073723;28;20432;-81
2023/02/08 07:06:19;;;;;;;0.73;0.50;;;-3.90;99.90;;;;;;5073321;28;20432;-81
2023/02/08 07:08:46;;;;;;;3.50;0.93;;;-3.90;99.90;;;;;;5073510;28;20456;-81
2023/02/08 07:11:15;;;;;;;0.73;0.73;;;-3.80;99.90;;;;;;5073532;28;20445;-81
2023/02/08 07:13:47;;;;;;;0.30;0.30;;;-3.80;99.90;;;;;;5073561;28;20427;-81
2023/02/08 07:16:14;;;;;;;0.50;0.50;;;-3.70;99.90;;;;;;5073490;28;20497;-81
2023/02/08 07:18:41;;;;;;;1.80;1.07;;;-3.60;99.90;;;;;;5073464;28;20453;-81
2023/02/08 07:21:09;;;;;;;0.30;0.30;;;-3.60;99.90;;;;;;5073632;28;20460;-81
2023/02/08 07:23:36;;;;;;;0.50;0.50;;;-3.50;99.90;;;;;;5073118;28;20994;-81
2023/02/08 07:26:05;;;;;;;0.73;0.73;;;-3.50;99.90;;;;;;5073334;28;20440;-81
2023/02/08 07:28:32;;;;;;;0.30;0.30;;;-3.40;99.90;;;;;;5073285;28;20462;-81
2023/02/08 07:31:00;;;;;;;0.30;0.30;;;-3.40;99.90;;;;;;5073400;28;20416;-81
2023/02/08 07:33:27;;;;;;;0.37;0.37;;;-3.30;99.90;;;;;;5073355;28;20445;-81
2023/02/08 07:35:53;;;;;;;0.40;0.40;;;-3.30;99.90;;;;;;5072938;28;20485;-81
2023/02/08 07:38:20;;;;;;;0.80;0.60;;;-3.30;99.90;;;;;;5073331;28;20424;-81
2023/02/08 07:40:47;;;;;;;0.67;0.60;;;-3.30;99.90;;;;;;5073295;28;20445;-81
2023/02/08 07:43:13;;;;;;;0.40;0.40;;;-3.30;99.90;;;;;;5072946;28;20420;-81
2023/02/08 07:45:40;;;;;;;0.40;0.40;;;-3.20;99.90;;;;;;5073152;28;20443;-81
2023/02/08 07:48:08;;;;;;;0.30;0.30;;;-3.20;99.90;;;;;;5074200;28;20496;-81
2023/02/08 07:50:35;;;;;;;1.70;0.97;;;-3.10;99.90;;;;;;5076943;28;20417;-81
2023/02/08 07:53:02;;;;;;;0.30;0.30;;;-3.10;99.90;;;;;;5078631;28;20449;-81
2023/02/08 07:55:28;;;;;;;0.30;0.30;;;-3.00;99.90;;;;;;5077157;28;20427;-81
2023/02/08 07:57:57;;;;;;;0.40;0.40;;;-3.00;99.90;;;;;;5076877;28;20413;-81
2023/02/08 08:00:25;;;;;;;0.40;0.33;;;-2.90;99.90;;;;;;5077028;28;20427;-81
2023/02/08 08:02:52;;;;;;;0.30;0.30;;;-2.90;99.90;;;;;;5077089;28;20482;-81
2023/02/08 08:05:20;;;;;;;1.27;1.17;;;-2.90;99.90;;;;;;5077006;28;20445;-81
2023/02/08 08:07:47;;;;;;;0.60;0.60;;;-2.90;99.90;;;;;;5076478;28;20474;-81
2023/02/08 08:10:14;;;;;;;0.83;0.70;;;-2.80;99.90;;;;;;5076852;28;20457;-81
2023/02/08 08:12:41;;;;;;;0.63;0.63;;;-2.70;99.90;;;;;;5076874;28;20435;-81
2023/02/08 08:15:08;;;;;;;0.40;0.40;;;-2.60;99.90;;;;;;5077019;28;20442;-81
2023/02/08 08:17:34;;;;;;;0.30;0.30;;;-2.60;99.90;;;;;;5076666;28;20443;-80
2023/02/08 08:20:01;;;;;;;0.30;0.30;;;-2.60;99.90;;;;;;5076682;28;20416;-80
2023/02/08 08:22:29;;;;;;;0.37;0.37;;;-2.50;99.90;;;;;;5076368;28;20474;-80
2023/02/08 08:24:57;;;;;;;0.40;0.40;;;-2.40;99.90;;;;;;5076709;28;20450;-80
2023/02/08 08:27:24;;;;;;;0.37;0.37;;;-2.30;99.90;;;;;;5076484;28;20456;-80
2023/02/08 08:29:51;;;;;;;0.40;0.40;;;-2.20;99.90;;;;;;5076408;28;20482;-80
2023/02/08 08:32:17;;;;;;;0.33;0.33;;;-2.10;99.90;;;;;;5076677;28;20841;-80
2023/02/08 08:34:44;;;;;;;0.40;0.40;;;-2.00;99.90;;;;;;5076368;28;20435;-80
2023/02/08 08:37:11;;;;;;;0.30;0.30;;;-1.90;99.90;;;;;;5076525;28;20470;-80
2023/02/08 08:39:39;;;;;;;0.30;0.30;;;-1.80;99.90;;;;;;5076328;28;20433;-80
2023/02/08 08:42:05;;;;;;;0.30;0.30;;;-1.60;99.90;;;;;;5076308;28;20433;-80
2023/02/08 08:44:32;;;;;;;0.43;0.43;;;-1.50;99.90;;;;;;5076438;28;20503;-80
2023/02/08 08:47:00;;;;;;;0.30;0.30;;;-1.30;99.90;;;;;;5076107;28;20504;-80
2023/02/08 08:49:28;;;;;;;0.30;0.30;;;-1.20;99.90;;;;;;5075742;28;20456;-80
2023/02/08 08:51:55;;;;;;;1.10;0.50;;;-0.90;99.90;;;;;;5076039;28;20435;-80
2023/02/08 08:54:22;;;;;;;0.30;0.30;;;-0.70;99.90;;;;;;5076058;28;20423;-80
2023/02/08 08:56:50;;;;;;;0.50;0.50;;;-0.40;99.90;;;;;;5075707;28;20981;-80
2023/02/08 08:59:17;;;;;;;0.30;0.30;;;-0.10;98.40;;;;;;5075415;28;20438;-80
2023/02/08 09:01:43;;;;;;;0.30;0.23;;;0.10;97.80;;;;;;5075972;28;20442;-80
2023/02/08 09:04:10;;;;;;;0.30;0.30;;;0.40;96.40;;;;;;5075558;28;20933;-79
2023/02/08 09:06:37;;;;;;;0.40;0.40;;;0.90;95.20;;;;;;5075575;28;20961;-79
2023/02/08 09:09:05;;;;;;;0.90;0.67;;;1.50;93.60;;;;;;5075355;28;20834;-79
2023/02/08 09:11:32;;;;;;;1.33;1.23;;;2.00;92.10;;;;;;5075782;28;20448;-79
2023/02/08 09:14:02;;;;;;;0.30;0.20;;;2.60;89.60;;;;;;5075689;28;20478;-79
2023/02/08 09:16:28;;;;;;;0.40;0.40;;;3.10;84.40;;;;;;5075599;28;20870;-79
2023/02/08 09:18:55;;;;;;;0.73;0.40;;;4.10;82.60;;;;;;5075647;28;20442;-79
2023/02/08 09:21:24;;;;;;;0.80;0.80;;;5.10;78.00;;;;;;5075523;28;20452;-79
2023/02/08 09:23:50;;;;;;;0.80;0.80;;;6.10;72.50;;;;;;5075192;28;20441;-78
2023/02/08 09:26:19;;;;;;;2.50;1.00;;;6.40;66.20;;;;;;5076220;28;20473;-79
2023/02/08 09:28:46;;;;;;;0.60;0.60;;;6.90;61.50;;;;;;5075097;28;20473;-79
2023/02/08 09:31:19;;;;;;;6.43;0.80;;;7.10;59.70;;;;;;5075379;28;20557;-78
2023/02/08 09:33:46;;;;;;;2.17;0.60;;;7.90;57.70;;;;;;5075406;28;20436;-78
2023/02/08 09:36:12;;;;;;;4.20;0.57;;;8.50;57.40;;;;;;5074858;28;20489;-79
2023/02/08 09:38:40;;;;;;;1.33;0.97;;;9.40;53.90;;;;;;5075279;28;20452;-78
2023/02/08 09:41:21;;;;;;;0.70;0.70;;;9.80;52.10;;;;;;5075040;28;20461;-79
2023/02/08 09:44:00;;;;;;;1.43;0.90;;;10.50;50.20;;;;;;5075151;28;20853;-78
2023/02/08 09:46:31;;;;;;;0.87;0.83;;;11.00;48.00;;;;;;5075055;28;20477;-79
2023/02/08 09:49:01;;;;;;;3.53;1.97;;;11.30;47.00;;;;;;5075040;28;20465;-79
2023/02/08 09:51:33;;;;;;;1.00;0.80;;;11.20;46.20;;;;;;5074994;28;20448;-79
2023/02/08 09:54:02;;;;;;;1.07;0.97;;;10.90;45.90;;;;;;5075015;28;20438;-79
2023/02/08 09:56:35;;;;;;;2.33;0.80;;;10.50;45.10;;;;;;5075059;28;20465;-79
2023/02/08 09:59:02;;;;;;;3.00;1.50;;;10.60;46.80;;;;;;5075098;28;20434;-79
2023/02/08 10:01:32;;;;;;;1.40;0.73;;;10.90;46.50;;;;;;5074481;28;20453;-78
2023/02/08 10:04:05;;;;;;;1.47;0.80;;;10.60;44.40;;;;;;5074856;28;20433;-79
2023/02/08 10:06:32;;;;;;;1.43;1.33;;;9.70;46.10;;;;;;5074636;28;20472;-79
2023/02/08 10:09:04;;;;;;;1.90;1.00;;;8.70;47.90;;;;;;5074859;28;20481;-79
2023/02/08 10:11:42;;;;;;;1.00;0.90;;;8.60;49.80;;;;;;5073754;28;20437;-79
2023/02/08 10:14:30;;;;;;;1.57;0.87;;;8.40;48.90;;;;;;5074585;28;20985;-83
2023/02/08 10:17:13;;;;;;;1.70;0.80;;;9.30;50.00;;;;;;5074558;28;20841;-82
2023/02/08 10:19:53;;;;;;;2.17;1.50;;;10.50;46.40;;;;;;5074706;28;20426;-83
2023/02/08 10:22:29;;;;;;;0.93;0.80;;;11.10;44.30;;;;;;5074613;28;20433;-82
2023/02/08 10:25:13;;;;;;;2.63;0.80;;;11.50;44.10;;;;;;5074458;28;20444;-82
2023/02/08 10:27:47;;;;;;;0.40;0.40;;;11.70;45.30;;;;;;5074338;28;20470;-82
2023/02/08 10:30:28;;;;;;;1.17;1.00;;;11.20;43.90;;;;;;5074062;28;20468;-83
2023/02/08 10:33:00;;;;;;;3.60;0.80;;;10.90;44.50;;;;;;5074170;28;20446;-83
2023/02/08 10:35:35;;;;;;;3.23;1.23;;;10.40;45.40;;;;;;5073748;28;20477;-82
2023/02/08 10:38:11;;;;;;;2.67;1.30;;;9.80;46.20;;;;;;5074212;28;20857;-83
2023/02/08 10:40:40;;;;;;;1.03;0.87;;;8.70;46.90;;;;;;5074267;28;20430;-83
2023/02/08 10:43:19;;;;;;;4.47;0.83;;;7.90;48.30;;;;;;5074043;28;20454;-83
2023/02/08 10:45:52;;;;;;;0.93;0.50;;;7.50;49.60;;;;;;5073722;28;20840;-83
2023/02/08 10:48:29;;;;;;;3.13;0.90;;;7.30;52.20;;;;;;5074112;28;20430;-83
2023/02/08 10:50:56;;;;;;;0.93;0.83;;;6.90;52.10;;;;;;5074200;28;20432;-83
2023/02/08 10:53:23;;;;;;;0.50;0.50;;;6.40;52.20;;;;;;5074271;28;20445;-83
2023/02/08 10:55:50;;;;;;;1.43;0.83;;;5.60;53.10;;;;;;5074014;28;20488;-82
2023/02/08 10:58:19;;;;;;;1.57;1.17;;;5.20;55.10;;;;;;5073662;28;20944;-83
2023/02/08 11:00:48;;;;;;;0.70;0.70;;;4.80;55.90;;;;;;5073985;28;20446;-83
2023/02/08 11:03:18;;;;;;;0.83;0.83;;;4.60;56.70;;;;;;5073908;28;20464;-83
2023/02/08 11:05:47;;;;;;;0.40;0.30;;;4.30;57.80;;;;;;5073770;28;21003;-83
2023/02/08 11:08:18;;;;;;;1.40;0.80;;;4.20;57.50;;;;;;5073838;28;20448;-83
2023/02/08 11:10:56;;;;;;;1.53;0.70;;;3.90;57.40;;;;;;5073627;28;20473;-83
2023/02/08 11:13:27;;;;;;;4.10;1.07;;;3.60;59.20;;;;;;5073703;28;20449;-83
2023/02/08 11:15:57;;;;;;;0.50;0.50;;;3.50;59.00;;;;;;5073706;28;20469;-83
2023/02/08 11:18:26;;;;;;;6.80;2.43;;;3.40;60.70;;;;;;5073261;28;20405;-83
2023/02/08 11:20:58;;;;;;;0.33;0.33;;;3.40;60.50;;;;;;5073487;28;20495;-82
2023/02/08 11:23:28;;;;;;;0.43;0.43;;;3.30;61.00;;;;;;5073196;28;20449;-82
2023/02/08 11:26:12;;;;;;;1.47;0.50;;;3.40;61.70;;;;;;5073372;28;20473;-83
2023/02/08 11:28:39;;;;;;;0.50;0.50;;;3.40;61.10;;;;;;5073382;28;20438;-83
2023/02/08 11:31:17;;;;;;;0.40;0.40;;;3.40;60.90;;;;;;5073410;28;20434;-83
2023/02/08 11:34:00;;;;;;;1.33;0.67;;;3.40;61.30;;;;;;5073552;28;20437;-82
2023/02/08 11:36:29;;;;;;;0.30;0.30;;;3.30;62.50;;;;;;5073222;28;20833;-82
2023/02/08 11:38:56;;;;;;;0.40;0.40;;;3.20;62.10;;;;;;5073714;28;20445;-83
2023/02/08 11:41:24;;;;;;;0.30;0.30;;;3.10;61.60;;;;;;5073308;28;20933;-83
2023/02/08 11:43:57;;;;;;;0.90;0.90;;;3.20;62.40;;;;;;5073750;28;20456;-83
2023/02/08 11:46:26;;;;;;;1.23;0.90;;;3.20;63.00;;;;;;5073721;28;20465;-83
2023/02/08 11:48:54;;;;;;;4.03;0.63;;;3.20;63.00;;;;;;5073352;28;20442;-82
2023/02/08 11:51:30;;;;;;;0.60;0.60;;;3.30;65.20;;;;;;5073165;28;20477;-82
2023/02/08 11:53:59;;;;;;;0.30;0.30;;;3.30;63.90;;;;;;5073908;28;20418;-82
2023/02/08 11:56:28;;;;;;;0.30;0.30;;;3.20;62.30;;;;;;5073126;28;20453;-83
2023/02/08 11:59:01;;;;;;;0.30;0.30;;;3.20;63.50;;;;;;5073168;28;20441;-83
2023/02/08 12:01:30;;;;;;;0.73;0.73;;;3.20;64.30;;;;;;5073216;28;20995;-82
2023/02/08 12:03:59;;;;;;;0.50;0.50;;;3.20;63.90;;;;;;5073514;28;20456;-83
2023/02/08 12:06:53;;;;;;;0.40;0.30;;;3.20;64.70;;;;;;5074614;28;20446;-82
2023/02/08 12:09:35;;;;;;;0.37;0.33;;;3.10;64.20;;;;;;5074121;28;20980;-83
2023/02/08 12:12:12;;;;;;;0.33;0.33;;;3.00;65.30;;;;;;5074486;28;20441;-83
2023/02/08 12:14:52;;;;;;;0.77;0.50;;;2.90;66.50;;;;;;5074734;28;20430;-83
2023/02/08 12:17:49;;;;;;;0.70;0.70;;;2.90;66.60;;;;;;5076070;28;20465;-83
2023/02/08 12:20:39;;;;;;;0.30;0.30;;;2.80;66.10;;;;;;5075465;28;20430;-83
2023/02/08 12:23:30;;;;;;;0.30;0.30;;;2.90;66.20;;;;;;5075448;28;20433;-83
2023/02/08 12:26:09;;;;;;;0.70;0.47;;;2.90;67.30;;;;;;5075266;28;20472;-83
2023/02/08 12:28:48;;;;;;;3.13;0.73;;;2.80;67.40;;;;;;5074760;28;20437;-83
2023/02/08 12:31:25;;;;;;;1.03;0.40;;;2.80;66.50;;;;;;5074434;28;20469;-82
2023/02/08 12:34:05;;;;;;;0.43;0.40;;;2.80;67.50;;;;;;5075183;28;20433;-83
2023/02/08 12:40:48;;;;;;;0.97;0.97;;;2.80;67.60;;;;;;5077142;28;20487;-82
2023/02/08 12:42:49;;;;;;;0.93;0.43;;;2.70;68.70;;;;;;5076984;28;20600;-83
2023/02/08 12:45:43;;;;;;;0.40;0.40;;;2.70;69.20;;;;;;5076615;28;20437;-82
2023/02/08 12:48:24;;;;;;;0.83;0.53;;;2.70;69.70;;;;;;5076961;28;20453;-83
2023/02/08 12:50:56;;;;;;;0.50;0.50;;;2.70;68.80;;;;;;5077162;28;20477;-80
2023/02/08 12:53:29;;;;;;;0.47;0.47;;;2.70;68.00;;;;;;5076260;28;20535;-79
2023/02/08 12:56:01;;;;;;;0.97;0.97;;;2.70;67.60;;;;;;5076064;28;20480;-79
2023/02/08 12:58:31;;;;;;;0.30;0.30;;;2.70;67.60;;;;;;5075806;28;20777;-80
2023/02/08 13:01:05;;;;;;;1.03;0.43;;;2.70;66.40;;;;;;5075819;28;20441;-80
2023/02/08 13:03:40;;;;;;;0.30;0.30;;;2.60;66.90;;;;;;5076027;28;20457;-79
2023/02/08 13:06:13;;;;;;;0.47;0.47;;;2.50;68.60;;;;;;5076313;28;20480;-80
2023/02/08 13:08:46;;;;;;;0.30;0.30;;;2.60;67.30;;;;;;5075671;28;20434;-79
2023/02/08 13:11:20;;;;;;;0.30;0.30;;;2.60;67.00;;;;;;5075813;28;20476;-80